createdAt,value
2023-12-22T00:08:36.910Z,9.25
2023-12-22T00:18:38.391Z,9.31
2023-12-22T00:28:39.425Z,9.38
2023-12-22T00:38:40.341Z,9.31
2023-12-22T00:48:42.606Z,9.19
2023-12-22T00:58:45.800Z,9.25
2023-12-22T01:08:48.651Z,9.19
2023-12-22T01:18:50.136Z,9.19
2023-12-22T01:28:51.200Z,9.25
2023-12-22T01:38:52.191Z,9.25
2023-12-22T01:48:53.495Z,8.88
2023-12-22T01:58:54.505Z,8.88
2023-12-22T02:08:55.390Z,8.94
2023-12-22T02:18:56.664Z,8.88
2023-12-22T02:28:57.552Z,9.13
2023-12-22T02:38:58.514Z,9.13
2023-12-22T02:48:59.821Z,9.19
2023-12-22T02:59:00.785Z,9.13
2023-12-22T03:09:01.643Z,9.13
2023-12-22T03:19:02.881Z,9.06
2023-12-22T03:29:03.785Z,9.13
2023-12-22T03:39:04.648Z,8.94
2023-12-22T03:49:05.871Z,8.88
2023-12-22T03:59:06.790Z,8.88
2023-12-22T04:09:07.651Z,9
2023-12-22T04:19:10.892Z,8.94
2023-12-22T04:29:12.945Z,9.13
2023-12-22T04:39:13.830Z,9.13
2023-12-22T04:49:15.103Z,9.06
2023-12-22T04:59:16.152Z,9.06
2023-12-22T05:09:16.989Z,8.94
2023-12-22T05:19:18.435Z,9.06
2023-12-22T05:29:19.317Z,9
2023-12-22T05:39:20.180Z,9.13
2023-12-22T05:49:21.425Z,9.06
2023-12-22T05:59:22.448Z,8.88
2023-12-22T06:09:23.309Z,9
2023-12-22T06:19:26.598Z,9
2023-12-22T06:29:29.445Z,8.88
2023-12-22T06:39:31.912Z,8.69
2023-12-22T06:49:33.418Z,8.56
2023-12-22T06:59:34.778Z,8.44
2023-12-22T07:09:35.966Z,8.44
2023-12-22T07:19:37.205Z,8.44
2023-12-22T07:29:38.656Z,8.44
2023-12-22T07:39:39.794Z,8.38
2023-12-22T07:49:41.365Z,8.38
2023-12-22T07:59:42.429Z,8.31
2023-12-22T08:09:43.349Z,8.44
2023-12-22T08:19:46.054Z,8.5
2023-12-22T08:29:48.530Z,8.56
2023-12-22T08:39:49.460Z,8.56
2023-12-22T08:49:50.845Z,8.63
2023-12-22T08:59:51.771Z,8.63
2023-12-22T09:09:52.690Z,8.69
2023-12-22T09:19:53.953Z,8.69
2023-12-22T09:29:54.835Z,8.69
2023-12-22T09:39:55.879Z,8.75
2023-12-22T09:49:57.222Z,8.69
2023-12-22T09:59:58.167Z,8.75
2023-12-22T10:09:59.043Z,8.81
2023-12-22T10:20:00.515Z,8.5
2023-12-22T10:30:01.499Z,7.94
2023-12-22T10:40:02.429Z,7.81
2023-12-22T10:50:03.971Z,7.81
2023-12-22T11:00:04.999Z,7.81
2023-12-22T11:10:05.912Z,7.88
2023-12-22T11:20:07.307Z,7.88
2023-12-22T11:30:08.214Z,7.75
2023-12-22T11:40:09.151Z,7.75
2023-12-22T11:50:10.379Z,7.75
2023-12-22T12:00:11.317Z,7.75
2023-12-22T12:10:12.230Z,7.81
2023-12-22T12:20:13.682Z,7.88
2023-12-22T12:30:14.684Z,7.94
2023-12-22T12:40:15.626Z,8
2023-12-22T12:50:16.982Z,8
2023-12-22T13:00:17.958Z,8.06
2023-12-22T13:10:18.919Z,8.19
2023-12-22T13:20:20.284Z,8.25
2023-12-22T13:30:21.325Z,8.38
2023-12-22T13:40:22.230Z,8.5
2023-12-22T13:50:23.600Z,8.5
2023-12-22T14:00:24.563Z,8.5
2023-12-22T14:10:25.485Z,8.56
2023-12-22T14:20:26.888Z,8.63
2023-12-22T14:30:27.899Z,8.69
2023-12-22T14:40:28.843Z,8.75
2023-12-22T14:50:30.415Z,8.75
2023-12-22T15:00:31.341Z,8.69
2023-12-22T15:10:32.282Z,8.69
2023-12-22T15:20:33.592Z,8.69
2023-12-22T15:30:34.593Z,8.69
2023-12-22T15:40:35.513Z,8.88
2023-12-22T15:50:36.868Z,8.94
2023-12-22T16:00:37.863Z,8.94
2023-12-22T16:10:38.755Z,9
2023-12-22T16:20:40.201Z,9
2023-12-22T16:30:41.099Z,9.06
2023-12-22T16:40:42.032Z,9.06
2023-12-22T16:50:43.233Z,9.06
2023-12-22T17:00:49.387Z,9
2023-12-22T17:10:49.955Z,8.94
2023-12-22T17:20:56.500Z,8.81
2023-12-22T17:30:57.021Z,8.88
2023-12-22T17:40:57.965Z,9
2023-12-22T17:50:59.292Z,8.88
2023-12-22T18:01:00.305Z,9.06
2023-12-22T18:11:01.302Z,9.31
2023-12-22T18:21:02.558Z,9.31
2023-12-22T18:31:03.450Z,9
2023-12-22T18:41:04.395Z,8.94
2023-12-22T18:51:05.845Z,8.88
2023-12-22T19:01:07.757Z,8.81
2023-12-22T19:11:13.272Z,8.88
2023-12-22T19:21:15.903Z,8.88
2023-12-22T19:31:16.826Z,8.81
2023-12-22T19:41:17.832Z,8.94
2023-12-22T19:51:19.046Z,8.88
2023-12-22T20:01:20.057Z,8.75
2023-12-22T20:11:20.993Z,8.69
2023-12-22T20:21:23.329Z,8.63
2023-12-22T20:31:24.230Z,8.56
2023-12-22T20:41:25.173Z,8.63
2023-12-22T20:51:26.690Z,8.75
2023-12-22T21:01:27.644Z,8.75
2023-12-22T21:11:28.693Z,8.88
2023-12-22T21:21:30.122Z,8.81
2023-12-22T21:31:31.030Z,8.88
2023-12-22T21:41:31.953Z,8.88
2023-12-22T21:51:33.378Z,8.88
2023-12-22T22:01:34.368Z,8.81
2023-12-22T22:11:35.321Z,8.75
2023-12-22T22:21:36.655Z,8.69
2023-12-22T22:31:37.550Z,8.69
2023-12-22T22:41:38.546Z,8.63
2023-12-22T22:51:39.916Z,8.56
2023-12-22T23:01:40.991Z,8.56
2023-12-22T23:11:42.033Z,8.44
2023-12-22T23:21:43.429Z,8.38
2023-12-22T23:31:44.411Z,8.44
2023-12-22T23:41:45.419Z,8.44
2023-12-22T23:51:46.680Z,8.56
